createdAt,value
2018-05-27T00:01:12.085Z,18.40
2018-05-27T00:03:40.157Z,18.30
2018-05-27T00:06:08.230Z,18.20
2018-05-27T00:08:36.285Z,18.20
2018-05-27T00:11:04.345Z,18.10
2018-05-27T00:13:33.117Z,18.10
2018-05-27T00:16:01.221Z,18.00
2018-05-27T00:18:29.272Z,18.00
2018-05-27T00:20:57.656Z,18.00
2018-05-27T00:23:25.728Z,17.90
2018-05-27T00:25:53.785Z,17.80
2018-05-27T00:28:21.865Z,17.80
2018-05-27T00:30:49.929Z,17.70
2018-05-27T00:33:18.001Z,17.60
2018-05-27T00:35:46.455Z,17.60
2018-05-27T00:38:14.681Z,17.60
2018-05-27T00:40:43.706Z,17.60
2018-05-27T00:43:12.885Z,17.50
2018-05-27T00:45:40.959Z,17.50
2018-05-27T00:48:09.009Z,17.50
2018-05-27T00:50:37.377Z,17.50
2018-05-27T00:53:05.481Z,17.50
2018-05-27T00:55:33.525Z,17.50
2018-05-27T00:58:01.796Z,17.50
2018-05-27T01:00:29.856Z,17.50
2018-05-27T01:02:57.925Z,17.40
2018-05-27T01:05:26.253Z,17.30
2018-05-27T01:07:55.065Z,17.20
2018-05-27T01:10:23.112Z,17.10
2018-05-27T01:12:51.965Z,17.10
2018-05-27T01:15:21.578Z,17.00
2018-05-27T01:17:49.633Z,17.00
2018-05-27T01:20:18.224Z,17.10
2018-05-27T01:22:46.290Z,17.10
2018-05-27T01:25:14.355Z,17.10
2018-05-27T01:27:42.777Z,17.10
2018-05-27T01:30:10.849Z,17.10
2018-05-27T01:32:38.901Z,17.10
2018-05-27T01:35:06.977Z,17.10
2018-05-27T01:37:35.060Z,17.00
2018-05-27T01:40:03.153Z,17.00
2018-05-27T01:42:33.123Z,16.90
2018-05-27T01:45:01.207Z,16.90
2018-05-27T01:47:29.309Z,16.90
2018-05-27T01:49:57.984Z,16.80
2018-05-27T01:52:26.080Z,16.80
2018-05-27T01:54:54.924Z,16.60
2018-05-27T01:57:23.005Z,16.60
2018-05-27T01:59:51.065Z,16.60
2018-05-27T02:02:19.125Z,16.50
2018-05-27T02:04:47.504Z,16.50
2018-05-27T02:07:15.589Z,16.40
2018-05-27T02:09:43.679Z,16.40
2018-05-27T02:12:11.889Z,16.40
2018-05-27T02:14:40.741Z,16.30
2018-05-27T02:17:09.205Z,16.30
2018-05-27T02:19:37.573Z,16.30
2018-05-27T02:22:05.632Z,16.20
2018-05-27T02:24:33.709Z,16.10
2018-05-27T02:27:02.197Z,16.10
2018-05-27T02:29:31.525Z,16.00
2018-05-27T02:31:59.569Z,16.10
2018-05-27T02:34:27.631Z,16.10
2018-05-27T02:36:55.929Z,16.10
2018-05-27T02:39:23.989Z,16.10
2018-05-27T02:41:52.045Z,16.00
2018-05-27T02:44:20.143Z,16.00
2018-05-27T02:46:48.229Z,15.90
2018-05-27T02:49:16.301Z,15.90
2018-05-27T02:51:44.381Z,15.80
2018-05-27T02:54:12.504Z,15.80
2018-05-27T02:56:40.585Z,15.70
2018-05-27T02:59:08.666Z,15.70
2018-05-27T03:01:36.761Z,15.70
2018-05-27T03:04:04.817Z,15.70
2018-05-27T03:06:33.146Z,15.60
2018-05-27T03:09:01.185Z,15.60
2018-05-27T03:11:29.265Z,15.60
2018-05-27T03:13:57.601Z,15.60
2018-05-27T03:16:25.659Z,15.60
2018-05-27T03:18:53.734Z,15.50
2018-05-27T03:21:22.148Z,15.50
2018-05-27T03:23:50.193Z,15.50
2018-05-27T03:26:18.252Z,15.50
2018-05-27T03:28:46.644Z,15.40
2018-05-27T03:31:14.733Z,15.40
2018-05-27T03:33:42.789Z,15.40
2018-05-27T03:36:11.268Z,15.40
2018-05-27T03:38:39.328Z,15.30
2018-05-27T03:41:07.423Z,15.30
2018-05-27T03:43:35.584Z,15.30
2018-05-27T03:46:03.685Z,15.20
2018-05-27T03:48:31.716Z,15.20
2018-05-27T03:50:59.792Z,15.10
2018-05-27T03:53:27.880Z,15.10
2018-05-27T03:55:55.968Z,15.10
2018-05-27T03:58:24.316Z,15.10
2018-05-27T04:00:52.405Z,15.10
2018-05-27T04:03:20.461Z,15.10
2018-05-27T04:05:48.565Z,15.10
2018-05-27T04:08:16.800Z,15.10
2018-05-27T04:10:44.867Z,15.10
2018-05-27T04:13:13.188Z,15.10
2018-05-27T04:15:41.261Z,15.10
2018-05-27T04:18:10.825Z,15.10
2018-05-27T04:20:39.348Z,15.10
2018-05-27T04:23:07.396Z,15.20
2018-05-27T04:25:35.479Z,15.10
2018-05-27T04:28:03.573Z,15.20
2018-05-27T04:30:31.620Z,15.20
2018-05-27T04:32:59.776Z,15.20
2018-05-27T04:35:28.185Z,15.20
2018-05-27T04:37:56.253Z,15.20
2018-05-27T04:40:24.326Z,15.20
2018-05-27T04:42:52.913Z,15.30
2018-05-27T04:45:20.985Z,15.30
2018-05-27T04:47:49.024Z,15.30
2018-05-27T04:50:17.432Z,15.40
2018-05-27T04:52:45.529Z,15.50
2018-05-27T04:55:14.377Z,15.70
2018-05-27T04:57:42.477Z,15.70
2018-05-27T05:00:10.549Z,15.90
2018-05-27T05:02:38.624Z,16.00
2018-05-27T05:05:06.744Z,16.20
2018-05-27T05:07:34.815Z,16.40
2018-05-27T05:10:02.888Z,16.60
2018-05-27T05:12:30.965Z,16.80
2018-05-27T05:14:59.108Z,16.90
2018-05-27T05:17:27.137Z,17.10
2018-05-27T05:19:55.233Z,17.20
2018-05-27T05:22:24.264Z,17.50
2018-05-27T05:24:52.313Z,17.50
2018-05-27T05:27:20.653Z,17.60
2018-05-27T05:29:48.725Z,17.70
2018-05-27T05:32:16.764Z,17.80
2018-05-27T05:34:45.458Z,17.90
2018-05-27T05:37:13.509Z,18.00
2018-05-27T05:39:41.581Z,18.20
2018-05-27T05:42:09.669Z,18.30
2018-05-27T05:44:37.729Z,18.40
2018-05-27T05:47:05.795Z,18.60
2018-05-27T05:49:34.192Z,18.70
2018-05-27T05:52:02.249Z,18.90
2018-05-27T05:54:30.324Z,19.00
2018-05-27T05:56:58.737Z,19.20
2018-05-27T05:59:26.809Z,19.30
2018-05-27T06:01:55.663Z,19.50
2018-05-27T06:04:23.763Z,19.50
2018-05-27T06:06:51.845Z,19.70
2018-05-27T06:09:19.884Z,19.60
2018-05-27T06:11:48.704Z,19.80
2018-05-27T06:14:16.773Z,20.00
2018-05-27T06:16:44.844Z,20.10
2018-05-27T06:19:12.933Z,20.40
2018-05-27T06:21:41.000Z,20.50
2018-05-27T06:24:09.075Z,20.70
2018-05-27T06:26:37.165Z,20.60
2018-05-27T06:29:05.989Z,21.10
2018-05-27T06:31:34.077Z,21.00
2018-05-27T06:34:02.665Z,21.20
2018-05-27T06:36:31.012Z,21.40
2018-05-27T06:38:59.085Z,21.60
2018-05-27T06:41:27.184Z,21.60
2018-05-27T06:43:55.272Z,21.60
2018-05-27T06:46:23.319Z,21.70
2018-05-27T06:48:51.419Z,21.70
2018-05-27T06:51:20.309Z,21.90
2018-05-27T06:53:48.345Z,21.90
2018-05-27T06:56:16.416Z,22.10
2018-05-27T06:58:44.512Z,22.40
2018-05-27T07:01:12.673Z,22.70
2018-05-27T07:03:41.069Z,23.00
2018-05-27T07:06:09.141Z,22.80
2018-05-27T07:08:37.213Z,23.10
2018-05-27T07:11:05.313Z,23.30
2018-05-27T07:13:34.157Z,23.60
2018-05-27T07:16:02.217Z,23.60
2018-05-27T07:18:30.786Z,23.90
2018-05-27T07:20:58.836Z,24.00
2018-05-27T07:23:26.937Z,24.10
2018-05-27T07:25:55.524Z,24.10
2018-05-27T07:28:23.609Z,24.40
2018-05-27T07:30:51.701Z,24.00
2018-05-27T07:33:20.038Z,24.10
2018-05-27T07:35:48.109Z,24.50
2018-05-27T07:38:16.225Z,25.00
2018-05-27T07:40:44.779Z,25.20
2018-05-27T07:43:12.834Z,25.40
2018-05-27T07:45:40.907Z,26.00
2018-05-27T07:48:09.009Z,26.10
2018-05-27T07:50:37.280Z,26.30
2018-05-27T07:53:05.337Z,26.60
2018-05-27T07:55:33.420Z,26.10
2018-05-27T07:58:01.505Z,26.20
2018-05-27T08:00:29.551Z,26.00
2018-05-27T08:02:58.057Z,25.90
2018-05-27T08:05:26.102Z,26.00
2018-05-27T08:07:54.162Z,26.40
2018-05-27T08:10:22.244Z,26.60
2018-05-27T08:12:50.332Z,26.40
2018-05-27T08:15:18.604Z,26.50
2018-05-27T08:17:46.971Z,26.50
2018-05-27T08:20:15.033Z,26.50
2018-05-27T08:22:43.125Z,26.40
2018-05-27T08:25:11.416Z,26.50
2018-05-27T08:27:39.490Z,26.40
2018-05-27T08:30:07.533Z,26.50
2018-05-27T08:32:35.608Z,26.50
2018-05-27T08:35:03.721Z,26.70
2018-05-27T08:37:31.737Z,26.90
2018-05-27T08:40:00.506Z,27.20
2018-05-27T08:42:28.541Z,27.70
2018-05-27T08:44:57.383Z,28.20
2018-05-27T08:47:26.284Z,28.20
2018-05-27T08:49:54.369Z,28.20
2018-05-27T08:52:22.457Z,28.30
2018-05-27T08:54:50.806Z,28.50
2018-05-27T08:57:18.894Z,28.60
2018-05-27T08:59:47.664Z,28.90
2018-05-27T09:02:15.728Z,29.00
2018-05-27T09:04:43.794Z,28.90
2018-05-27T09:07:12.129Z,29.00
2018-05-27T09:09:40.204Z,29.30
2018-05-27T09:12:08.273Z,29.50
2018-05-27T09:14:36.632Z,29.70
2018-05-27T09:17:04.676Z,30.30
2018-05-27T09:19:32.737Z,31.70
2018-05-27T09:22:01.129Z,32.20
2018-05-27T09:24:29.189Z,33.00
2018-05-27T09:26:57.257Z,33.10
2018-05-27T09:29:25.345Z,32.90
2018-05-27T09:31:53.425Z,32.10
2018-05-27T09:34:21.514Z,31.90
2018-05-27T09:36:50.394Z,32.00
2018-05-27T09:39:18.509Z,32.00
2018-05-27T09:41:46.507Z,33.20
2018-05-27T09:44:14.821Z,34.00
2018-05-27T09:46:42.897Z,34.40
2018-05-27T09:49:11.128Z,35.20
2018-05-27T09:51:39.521Z,35.50
2018-05-27T09:54:07.609Z,35.30
2018-05-27T09:56:35.705Z,35.60
2018-05-27T09:59:03.789Z,36.40
2018-05-27T10:01:32.692Z,36.20
2018-05-27T10:04:00.741Z,36.20
2018-05-27T10:06:29.821Z,37.50
2018-05-27T10:08:57.893Z,37.40
2018-05-27T10:11:25.965Z,38.10
2018-05-27T10:13:54.049Z,38.40
2018-05-27T10:16:22.089Z,38.50
2018-05-27T10:18:50.149Z,38.50
2018-05-27T10:21:18.253Z,37.90
2018-05-27T10:23:46.321Z,36.40
2018-05-27T10:26:14.407Z,35.40
2018-05-27T10:28:42.741Z,34.70
2018-05-27T10:31:10.829Z,33.70
2018-05-27T10:33:38.885Z,33.30
2018-05-27T10:36:07.277Z,33.00
2018-05-27T10:38:36.269Z,32.90
2018-05-27T10:41:04.357Z,32.90
2018-05-27T10:43:32.664Z,33.10
2018-05-27T10:46:00.740Z,33.40
2018-05-27T10:48:28.811Z,33.90
2018-05-27T10:50:57.828Z,33.40
2018-05-27T10:53:25.903Z,33.40
2018-05-27T10:55:53.949Z,33.80
2018-05-27T10:58:22.260Z,34.60
2018-05-27T11:00:50.326Z,35.30
2018-05-27T11:03:18.519Z,35.60
2018-05-27T11:05:46.681Z,35.90
2018-05-27T11:08:14.652Z,35.20
2018-05-27T11:10:42.733Z,35.10
2018-05-27T11:13:11.097Z,34.50
2018-05-27T11:15:39.165Z,34.70
2018-05-27T11:18:07.257Z,34.80
2018-05-27T11:20:35.651Z,34.50
2018-05-27T11:23:03.692Z,35.50
2018-05-27T11:25:31.754Z,36.60
2018-05-27T11:28:00.141Z,38.10
2018-05-27T11:30:28.227Z,38.80
2018-05-27T11:32:56.313Z,38.90
2018-05-27T11:35:24.590Z,38.60
2018-05-27T11:37:52.632Z,38.40
2018-05-27T11:40:20.690Z,38.30
2018-05-27T11:42:49.017Z,37.50
2018-05-27T11:45:17.097Z,37.70
2018-05-27T11:47:45.958Z,37.80
2018-05-27T11:50:14.057Z,37.80
2018-05-27T11:52:42.276Z,37.60
2018-05-27T11:55:10.324Z,37.00
2018-05-27T11:57:38.641Z,36.20
2018-05-27T12:00:06.724Z,35.50
2018-05-27T12:02:34.784Z,35.40
2018-05-27T12:05:03.265Z,35.60
2018-05-27T12:07:31.318Z,36.40
2018-05-27T12:09:59.396Z,35.90
2018-05-27T12:12:27.505Z,36.40
2018-05-27T12:14:55.589Z,36.80
2018-05-27T12:17:23.733Z,36.80
2018-05-27T12:19:52.124Z,36.50
2018-05-27T12:22:20.169Z,36.20
2018-05-27T12:24:48.233Z,35.70
2018-05-27T12:27:16.620Z,35.00
2018-05-27T12:29:44.775Z,34.40
2018-05-27T12:32:12.804Z,34.30
2018-05-27T12:34:41.069Z,34.40
2018-05-27T12:37:09.137Z,34.40
2018-05-27T12:39:37.208Z,34.00
2018-05-27T12:42:05.604Z,33.70
2018-05-27T12:44:34.437Z,32.60
2018-05-27T12:47:02.509Z,32.50
2018-05-27T12:49:30.841Z,31.80
2018-05-27T12:51:58.880Z,31.10
2018-05-27T12:54:26.941Z,30.70
2018-05-27T12:56:55.492Z,30.40
2018-05-27T12:59:24.300Z,29.70
2018-05-27T13:01:52.371Z,29.60
2018-05-27T13:04:20.551Z,28.20
2018-05-27T13:06:48.949Z,27.00
2018-05-27T13:09:17.040Z,26.00
2018-05-27T13:11:45.142Z,25.30
2018-05-27T13:14:13.985Z,23.70
2018-05-27T13:16:42.180Z,23.60
2018-05-27T13:19:10.947Z,22.00
2018-05-27T13:21:39.017Z,19.30
2018-05-27T13:24:07.081Z,18.00
2018-05-27T13:26:35.497Z,17.20
2018-05-27T13:29:03.585Z,16.90
2018-05-27T13:31:32.421Z,15.80
2018-05-27T13:34:01.106Z,15.80
2018-05-27T13:36:29.177Z,15.80
2018-05-27T13:38:57.285Z,15.90
2018-05-27T13:41:25.389Z,15.90
2018-05-27T13:43:54.220Z,16.00
2018-05-27T13:46:23.051Z,16.00
2018-05-27T13:48:51.929Z,16.30
2018-05-27T13:51:20.009Z,16.30
2018-05-27T13:53:49.208Z,16.50
2018-05-27T13:56:18.902Z,16.70
2018-05-27T13:58:46.972Z,16.60
2018-05-27T14:01:15.045Z,16.50
2018-05-27T14:03:43.124Z,16.60
2018-05-27T14:06:12.007Z,16.90
2018-05-27T14:08:41.006Z,16.90
2018-05-27T14:11:09.084Z,16.90
2018-05-27T14:13:38.889Z,17.00
2018-05-27T14:16:07.798Z,17.00
2018-05-27T14:18:36.674Z,16.90
2018-05-27T14:21:04.744Z,16.90
2018-05-27T14:23:33.593Z,16.70
2018-05-27T14:26:01.716Z,16.60
2018-05-27T14:28:30.385Z,16.70
2018-05-27T14:30:58.472Z,16.70
2018-05-27T14:33:27.319Z,16.70
2018-05-27T14:35:55.693Z,16.70
2018-05-27T14:38:23.881Z,16.60
2018-05-27T14:40:51.936Z,16.60
2018-05-27T14:43:20.856Z,16.60
2018-05-27T14:45:48.913Z,16.60
2018-05-27T14:48:17.008Z,16.60
2018-05-27T14:50:45.349Z,16.60
2018-05-27T14:53:13.420Z,16.60
2018-05-27T14:55:41.529Z,16.70
2018-05-27T14:58:09.595Z,16.70
2018-05-27T15:00:37.664Z,16.70
2018-05-27T15:03:05.739Z,16.70
2018-05-27T15:05:34.329Z,16.80
2018-05-27T15:08:03.117Z,16.90
2018-05-27T15:10:31.196Z,16.90
2018-05-27T15:13:00.045Z,17.20
2018-05-27T15:15:28.416Z,17.20
2018-05-27T15:17:56.533Z,17.40
2018-05-27T15:20:25.393Z,17.70
2018-05-27T15:22:53.749Z,17.60
2018-05-27T15:25:21.869Z,17.80
2018-05-27T15:27:51.476Z,18.00
2018-05-27T15:30:20.161Z,18.20
2018-05-27T15:32:49.033Z,18.50
2018-05-27T15:35:17.085Z,18.50
2018-05-27T15:37:45.205Z,18.60
2018-05-27T15:40:14.085Z,18.80
2018-05-27T15:42:42.161Z,18.70
2018-05-27T15:45:11.933Z,18.70
2018-05-27T15:47:40.041Z,18.70
2018-05-27T15:50:08.121Z,18.60
2018-05-27T15:52:37.720Z,18.40
2018-05-27T15:55:05.769Z,18.40
2018-05-27T15:57:35.241Z,18.30
2018-05-27T16:00:04.154Z,18.20
2018-05-27T16:02:32.220Z,18.30
2018-05-27T16:05:00.330Z,18.40
2018-05-27T16:07:28.420Z,18.60
2018-05-27T16:09:58.212Z,19.20
2018-05-27T16:12:26.261Z,19.20
2018-05-27T16:14:55.793Z,19.50
2018-05-27T16:17:24.540Z,19.50
2018-05-27T16:19:52.612Z,19.60
2018-05-27T16:22:21.542Z,19.70
2018-05-27T16:24:49.589Z,19.80
2018-05-27T16:27:17.680Z,19.80
2018-05-27T16:29:45.785Z,19.80
2018-05-27T16:32:13.849Z,19.90
2018-05-27T16:34:41.949Z,19.90
2018-05-27T16:37:10.065Z,19.80
2018-05-27T16:39:38.135Z,19.80
2018-05-27T16:42:06.222Z,19.70
2018-05-27T16:44:35.309Z,19.70
2018-05-27T16:47:03.537Z,19.70
2018-05-27T16:49:31.617Z,19.70
2018-05-27T16:51:59.736Z,19.70
2018-05-27T16:54:28.583Z,19.90
2018-05-27T16:56:56.653Z,19.90
2018-05-27T16:59:25.661Z,19.80
2018-05-27T17:01:53.757Z,19.80
2018-05-27T17:04:21.840Z,19.80
2018-05-27T17:06:51.025Z,19.80
2018-05-27T17:09:19.092Z,19.80
2018-05-27T17:11:47.177Z,19.80
2018-05-27T17:14:16.878Z,19.80
2018-05-27T17:16:44.960Z,19.70
2018-05-27T17:19:13.841Z,19.60
2018-05-27T17:21:42.281Z,19.60
2018-05-27T17:24:10.397Z,19.60
2018-05-27T17:26:39.284Z,19.50
2018-05-27T17:29:07.661Z,19.50
2018-05-27T17:31:35.725Z,19.50
2018-05-27T17:34:03.776Z,19.60
2018-05-27T17:36:32.181Z,19.70
2018-05-27T17:39:00.409Z,19.70
2018-05-27T17:41:28.497Z,19.70
2018-05-27T17:43:56.613Z,19.70
2018-05-27T17:46:25.485Z,19.60
2018-05-27T17:48:53.552Z,19.60
2018-05-27T17:51:21.905Z,19.60
2018-05-27T17:53:49.973Z,19.50
2018-05-27T17:56:18.805Z,19.40
2018-05-27T17:58:46.877Z,19.30
2018-05-27T18:01:15.737Z,19.30
2018-05-27T18:03:44.104Z,19.30
2018-05-27T18:06:12.177Z,19.30
2018-05-27T18:08:40.249Z,19.30
2018-05-27T18:11:08.369Z,19.20
2018-05-27T18:13:37.208Z,19.10
2018-05-27T18:16:05.281Z,19.10
2018-05-27T18:18:33.697Z,19.10
2018-05-27T18:21:02.590Z,19.00
2018-05-27T18:23:30.669Z,19.00
2018-05-27T18:26:00.318Z,19.10
2018-05-27T18:28:28.383Z,19.10
2018-05-27T18:30:56.464Z,19.10
2018-05-27T18:33:24.580Z,19.10
2018-05-27T18:35:52.669Z,19.10
2018-05-27T18:38:20.829Z,19.10
2018-05-27T18:40:48.895Z,19.10
2018-05-27T18:43:17.733Z,19.00
2018-05-27T18:45:45.827Z,19.00
2018-05-27T18:48:14.612Z,18.90
2018-05-27T18:50:42.694Z,18.90
2018-05-27T18:53:12.096Z,18.90
2018-05-27T18:55:40.202Z,18.90
2018-05-27T18:58:09.049Z,18.90
2018-05-27T19:00:37.158Z,18.80
2018-05-27T19:03:06.004Z,18.80
2018-05-27T19:05:34.121Z,18.80
2018-05-27T19:08:02.196Z,18.80
2018-05-27T19:10:31.040Z,18.70
2018-05-27T19:12:59.155Z,18.70
2018-05-27T19:15:27.533Z,18.70
2018-05-27T19:17:56.625Z,18.80
2018-05-27T19:20:24.704Z,18.80
2018-05-27T19:22:53.549Z,18.70
2018-05-27T19:25:22.133Z,18.70
2018-05-27T19:27:50.245Z,18.60
2018-05-27T19:30:18.324Z,18.50
2018-05-27T19:32:47.178Z,18.50
2018-05-27T19:35:15.276Z,18.40
2018-05-27T19:37:43.362Z,18.40
2018-05-27T19:40:12.221Z,18.40
2018-05-27T19:42:40.469Z,18.40
2018-05-27T19:45:08.551Z,18.30
2018-05-27T19:47:36.673Z,18.30
2018-05-27T19:50:05.515Z,18.30
2018-05-27T19:52:33.625Z,18.30
2018-05-27T19:55:02.001Z,18.30
2018-05-27T19:57:30.889Z,18.40
2018-05-27T19:59:58.940Z,18.40
2018-05-27T20:02:28.838Z,18.40
2018-05-27T20:04:56.944Z,18.40
2018-05-27T20:07:25.025Z,18.50
2018-05-27T20:09:54.198Z,18.50
2018-05-27T20:12:22.281Z,18.50
2018-05-27T20:14:50.341Z,18.50
2018-05-27T20:17:19.005Z,18.50
2018-05-27T20:19:47.122Z,18.50
2018-05-27T20:22:15.972Z,18.40
2018-05-27T20:24:44.356Z,18.40
2018-05-27T20:27:13.337Z,18.50
2018-05-27T20:29:41.446Z,18.50
2018-05-27T20:32:09.529Z,18.50
2018-05-27T20:34:38.384Z,18.30
2018-05-27T20:37:06.481Z,18.30
2018-05-27T20:39:34.568Z,18.40
2018-05-27T20:42:03.753Z,18.20
2018-05-27T20:44:32.641Z,18.20
2018-05-27T20:47:00.689Z,18.20
2018-05-27T20:49:29.297Z,18.20
2018-05-27T20:51:57.373Z,18.20
2018-05-27T20:54:26.256Z,18.30
2018-05-27T20:56:54.328Z,18.20
2018-05-27T20:59:22.425Z,18.30
2018-05-27T21:01:51.252Z,18.20
2018-05-27T21:04:19.373Z,18.20
2018-05-27T21:06:47.454Z,18.20
2018-05-27T21:09:16.325Z,18.10
2018-05-27T21:11:44.544Z,18.10
2018-05-27T21:14:13.353Z,18.10
2018-05-27T21:16:41.433Z,18.10
2018-05-27T21:19:09.533Z,18.10
2018-05-27T21:21:39.153Z,18.10
2018-05-27T21:24:07.233Z,18.10
2018-05-27T21:26:36.097Z,18.10
2018-05-27T21:29:04.205Z,18.10
2018-05-27T21:31:32.293Z,18.10
2018-05-27T21:34:00.393Z,18.10
2018-05-27T21:36:28.797Z,18.00
2018-05-27T21:38:57.049Z,18.00
2018-05-27T21:41:25.105Z,18.00
2018-05-27T21:43:54.306Z,18.00
2018-05-27T21:46:22.413Z,17.90
2018-05-27T21:48:50.496Z,18.00
2018-05-27T21:51:20.094Z,18.00
2018-05-27T21:53:48.945Z,18.10
2018-05-27T21:56:17.057Z,18.00
2018-05-27T21:58:45.261Z,18.00
2018-05-27T22:01:14.124Z,18.00
2018-05-27T22:03:42.181Z,18.00
2018-05-27T22:06:10.673Z,18.00
2018-05-27T22:08:39.525Z,18.00
2018-05-27T22:11:07.596Z,18.00
2018-05-27T22:13:36.013Z,18.00
2018-05-27T22:16:05.051Z,18.00
2018-05-27T22:18:33.153Z,18.00
2018-05-27T22:21:01.258Z,18.00
2018-05-27T22:23:30.145Z,17.90
2018-05-27T22:25:58.228Z,17.80
2018-05-27T22:28:27.933Z,17.80
2018-05-27T22:30:56.777Z,17.80
2018-05-27T22:33:25.705Z,17.80
2018-05-27T22:35:54.569Z,17.70
2018-05-27T22:38:22.637Z,17.70
2018-05-27T22:40:50.993Z,17.60
2018-05-27T22:43:19.059Z,17.60
2018-05-27T22:45:47.161Z,17.50
2018-05-27T22:48:15.261Z,17.50
2018-05-27T22:50:43.349Z,17.50
2018-05-27T22:53:12.253Z,17.40
2018-05-27T22:55:40.449Z,17.40
2018-05-27T22:58:08.620Z,17.30
2018-05-27T23:00:36.741Z,17.30
2018-05-27T23:03:04.833Z,17.30
2018-05-27T23:05:33.715Z,17.30
2018-05-27T23:08:02.593Z,17.30
2018-05-27T23:10:30.918Z,17.20
2018-05-27T23:12:59.024Z,17.20
2018-05-27T23:15:27.089Z,17.20
2018-05-27T23:17:55.485Z,17.20
2018-05-27T23:20:23.574Z,17.10
2018-05-27T23:22:52.456Z,17.10
2018-05-27T23:25:20.581Z,17.10
2018-05-27T23:27:48.655Z,17.00
2018-05-27T23:30:16.772Z,17.00
2018-05-27T23:32:44.873Z,17.00
2018-05-27T23:35:13.066Z,16.90
2018-05-27T23:37:41.136Z,16.90
2018-05-27T23:40:09.521Z,16.90
2018-05-27T23:42:37.617Z,16.80
2018-05-27T23:45:05.712Z,16.80
2018-05-27T23:47:33.949Z,16.70
2018-05-27T23:50:02.053Z,16.70
2018-05-27T23:52:30.108Z,16.70
2018-05-27T23:54:58.509Z,16.70
2018-05-27T23:57:26.589Z,16.60
2018-05-27T23:59:56.191Z,16.60
